sensor_id;sensor_type;location;lat;lon;timestamp;P1;durP1;ratioP1;P2;durP2;ratioP2
2966;SDS011;1493;51.496;7.210;2023-06-22T00:00:46;5.10;;;4.30;;
2966;SDS011;1493;51.496;7.210;2023-06-22T00:03:13;5.50;;;4.23;;
2966;SDS011;1493;51.496;7.210;2023-06-22T00:05:41;7.17;;;4.50;;
2966;SDS011;1493;51.496;7.210;2023-06-22T00:08:10;5.63;;;4.20;;
2966;SDS011;1493;51.496;7.210;2023-06-22T00:10:37;5.73;;;4.87;;
2966;SDS011;1493;51.496;7.210;2023-06-22T00:13:04;8.30;;;5.03;;
2966;SDS011;1493;51.496;7.210;2023-06-22T00:15:32;6.60;;;4.40;;
2966;SDS011;1493;51.496;7.210;2023-06-22T00:17:59;6.40;;;4.47;;
2966;SDS011;1493;51.496;7.210;2023-06-22T00:20:27;5.40;;;4.83;;
2966;SDS011;1493;51.496;7.210;2023-06-22T00:22:56;7.03;;;5.00;;
2966;SDS011;1493;51.496;7.210;2023-06-22T00:25:24;6.70;;;5.20;;
2966;SDS011;1493;51.496;7.210;2023-06-22T00:27:51;16.57;;;4.20;;
2966;SDS011;1493;51.496;7.210;2023-06-22T00:30:18;7.50;;;4.20;;
2966;SDS011;1493;51.496;7.210;2023-06-22T00:32:45;5.53;;;4.57;;
2966;SDS011;1493;51.496;7.210;2023-06-22T00:35:12;5.13;;;4.37;;
2966;SDS011;1493;51.496;7.210;2023-06-22T00:37:39;8.67;;;5.10;;
2966;SDS011;1493;51.496;7.210;2023-06-22T00:40:09;5.80;;;4.87;;
2966;SDS011;1493;51.496;7.210;2023-06-22T00:42:37;7.40;;;4.70;;
2966;SDS011;1493;51.496;7.210;2023-06-22T00:45:04;7.43;;;5.50;;
2966;SDS011;1493;51.496;7.210;2023-06-22T00:47:32;7.90;;;5.13;;
2966;SDS011;1493;51.496;7.210;2023-06-22T00:50:00;6.80;;;5.50;;
2966;SDS011;1493;51.496;7.210;2023-06-22T00:52:27;7.23;;;5.73;;
2966;SDS011;1493;51.496;7.210;2023-06-22T00:54:58;5.97;;;4.47;;
2966;SDS011;1493;51.496;7.210;2023-06-22T00:57:29;7.43;;;5.10;;
2966;SDS011;1493;51.496;7.210;2023-06-22T00:59:56;8.10;;;5.80;;
2966;SDS011;1493;51.496;7.210;2023-06-22T01:02:23;8.30;;;5.30;;
2966;SDS011;1493;51.496;7.210;2023-06-22T01:04:50;6.60;;;5.90;;
2966;SDS011;1493;51.496;7.210;2023-06-22T01:07:19;8.53;;;6.03;;
2966;SDS011;1493;51.496;7.210;2023-06-22T01:09:54;7.80;;;6.27;;
2966;SDS011;1493;51.496;7.210;2023-06-22T01:12:25;8.97;;;6.67;;
2966;SDS011;1493;51.496;7.210;2023-06-22T01:14:57;7.20;;;5.63;;
2966;SDS011;1493;51.496;7.210;2023-06-22T01:17:31;6.93;;;5.60;;
2966;SDS011;1493;51.496;7.210;2023-06-22T01:19:59;8.20;;;6.80;;
2966;SDS011;1493;51.496;7.210;2023-06-22T01:22:30;7.13;;;6.10;;
2966;SDS011;1493;51.496;7.210;2023-06-22T01:25:07;7.60;;;6.27;;
2966;SDS011;1493;51.496;7.210;2023-06-22T01:27:39;8.53;;;6.77;;
2966;SDS011;1493;51.496;7.210;2023-06-22T01:30:17;10.47;;;6.97;;
2966;SDS011;1493;51.496;7.210;2023-06-22T01:32:45;8.70;;;6.90;;
2966;SDS011;1493;51.496;7.210;2023-06-22T01:35:13;8.30;;;6.97;;
2966;SDS011;1493;51.496;7.210;2023-06-22T01:37:41;7.70;;;6.90;;
2966;SDS011;1493;51.496;7.210;2023-06-22T01:40:08;9.50;;;7.60;;
2966;SDS011;1493;51.496;7.210;2023-06-22T01:42:35;10.13;;;7.27;;
2966;SDS011;1493;51.496;7.210;2023-06-22T01:45:03;6.93;;;6.23;;
2966;SDS011;1493;51.496;7.210;2023-06-22T01:47:33;9.43;;;7.20;;
2966;SDS011;1493;51.496;7.210;2023-06-22T01:50:00;7.70;;;6.40;;
2966;SDS011;1493;51.496;7.210;2023-06-22T01:52:27;9.43;;;7.70;;
2966;SDS011;1493;51.496;7.210;2023-06-22T01:54:54;8.27;;;7.47;;
2966;SDS011;1493;51.496;7.210;2023-06-22T01:57:22;10.50;;;9.30;;
2966;SDS011;1493;51.496;7.210;2023-06-22T01:59:51;9.77;;;8.27;;
2966;SDS011;1493;51.496;7.210;2023-06-22T02:02:27;8.50;;;7.50;;
2966;SDS011;1493;51.496;7.210;2023-06-22T02:05:01;9.77;;;7.67;;
2966;SDS011;1493;51.496;7.210;2023-06-22T02:07:32;8.60;;;7.50;;
2966;SDS011;1493;51.496;7.210;2023-06-22T02:10:05;8.87;;;7.60;;
2966;SDS011;1493;51.496;7.210;2023-06-22T02:12:33;8.87;;;7.53;;
2966;SDS011;1493;51.496;7.210;2023-06-22T02:15:02;9.97;;;7.33;;
2966;SDS011;1493;51.496;7.210;2023-06-22T02:17:30;7.33;;;6.60;;
2966;SDS011;1493;51.496;7.210;2023-06-22T02:20:00;10.20;;;7.67;;
2966;SDS011;1493;51.496;7.210;2023-06-22T02:22:29;9.47;;;7.50;;
2966;SDS011;1493;51.496;7.210;2023-06-22T02:24:56;8.83;;;7.53;;
2966;SDS011;1493;51.496;7.210;2023-06-22T02:27:23;9.73;;;7.90;;
2966;SDS011;1493;51.496;7.210;2023-06-22T02:29:50;9.77;;;8.40;;
2966;SDS011;1493;51.496;7.210;2023-06-22T02:32:17;8.83;;;6.70;;
2966;SDS011;1493;51.496;7.210;2023-06-22T02:34:44;9.23;;;7.37;;
2966;SDS011;1493;51.496;7.210;2023-06-22T02:37:14;8.70;;;7.80;;
2966;SDS011;1493;51.496;7.210;2023-06-22T02:39:41;9.13;;;8.20;;
2966;SDS011;1493;51.496;7.210;2023-06-22T02:42:08;9.03;;;8.10;;
2966;SDS011;1493;51.496;7.210;2023-06-22T02:44:35;8.90;;;8.00;;
2966;SDS011;1493;51.496;7.210;2023-06-22T02:47:03;12.73;;;8.80;;
2966;SDS011;1493;51.496;7.210;2023-06-22T02:49:30;10.43;;;8.93;;
2966;SDS011;1493;51.496;7.210;2023-06-22T02:51:57;9.87;;;8.23;;
2966;SDS011;1493;51.496;7.210;2023-06-22T02:54:25;11.43;;;8.00;;
2966;SDS011;1493;51.496;7.210;2023-06-22T02:56:52;8.70;;;7.80;;
2966;SDS011;1493;51.496;7.210;2023-06-22T02:59:18;11.90;;;8.80;;
2966;SDS011;1493;51.496;7.210;2023-06-22T03:01:48;12.67;;;9.87;;
2966;SDS011;1493;51.496;7.210;2023-06-22T03:04:15;9.97;;;8.97;;
2966;SDS011;1493;51.496;7.210;2023-06-22T03:06:42;9.83;;;8.83;;
2966;SDS011;1493;51.496;7.210;2023-06-22T03:09:09;10.30;;;9.07;;
2966;SDS011;1493;51.496;7.210;2023-06-22T03:11:37;10.00;;;8.87;;
2966;SDS011;1493;51.496;7.210;2023-06-22T03:14:04;9.57;;;8.57;;
2966;SDS011;1493;51.496;7.210;2023-06-22T03:16:31;10.80;;;9.67;;
2966;SDS011;1493;51.496;7.210;2023-06-22T03:18:58;10.37;;;9.23;;
2966;SDS011;1493;51.496;7.210;2023-06-22T03:21:26;9.97;;;8.60;;
2966;SDS011;1493;51.496;7.210;2023-06-22T03:23:54;10.30;;;8.97;;
2966;SDS011;1493;51.496;7.210;2023-06-22T03:26:21;10.63;;;8.80;;
2966;SDS011;1493;51.496;7.210;2023-06-22T03:28:49;13.03;;;8.83;;
2966;SDS011;1493;51.496;7.210;2023-06-22T03:31:16;12.47;;;10.73;;
2966;SDS011;1493;51.496;7.210;2023-06-22T03:33:46;10.50;;;9.50;;
2966;SDS011;1493;51.496;7.210;2023-06-22T03:36:13;10.93;;;9.83;;
2966;SDS011;1493;51.496;7.210;2023-06-22T03:38:41;12.47;;;10.57;;
2966;SDS011;1493;51.496;7.210;2023-06-22T03:41:08;11.17;;;10.07;;
2966;SDS011;1493;51.496;7.210;2023-06-22T03:43:35;11.67;;;10.57;;
2966;SDS011;1493;51.496;7.210;2023-06-22T03:46:03;11.80;;;10.60;;
2966;SDS011;1493;51.496;7.210;2023-06-22T03:48:29;14.03;;;10.50;;
2966;SDS011;1493;51.496;7.210;2023-06-22T03:50:56;11.90;;;10.27;;
2966;SDS011;1493;51.496;7.210;2023-06-22T03:53:24;11.83;;;10.03;;
2966;SDS011;1493;51.496;7.210;2023-06-22T03:55:51;11.70;;;10.50;;
2966;SDS011;1493;51.496;7.210;2023-06-22T03:58:19;15.33;;;11.17;;
2966;SDS011;1493;51.496;7.210;2023-06-22T04:00:47;17.73;;;11.60;;
2966;SDS011;1493;51.496;7.210;2023-06-22T04:03:15;13.67;;;10.87;;
2966;SDS011;1493;51.496;7.210;2023-06-22T04:05:43;11.33;;;10.23;;
2966;SDS011;1493;51.496;7.210;2023-06-22T04:08:11;12.13;;;10.93;;
2966;SDS011;1493;51.496;7.210;2023-06-22T04:10:39;11.60;;;10.50;;
2966;SDS011;1493;51.496;7.210;2023-06-22T04:13:06;13.60;;;12.20;;
2966;SDS011;1493;51.496;7.210;2023-06-22T04:15:33;14.97;;;12.67;;
2966;SDS011;1493;51.496;7.210;2023-06-22T04:18:00;11.60;;;10.50;;
2966;SDS011;1493;51.496;7.210;2023-06-22T04:20:28;12.67;;;11.33;;
2966;SDS011;1493;51.496;7.210;2023-06-22T04:22:56;13.87;;;12.40;;
2966;SDS011;1493;51.496;7.210;2023-06-22T04:25:23;14.07;;;12.67;;
2966;SDS011;1493;51.496;7.210;2023-06-22T04:27:50;15.23;;;12.20;;
2966;SDS011;1493;51.496;7.210;2023-06-22T04:30:16;13.60;;;11.20;;
2966;SDS011;1493;51.496;7.210;2023-06-22T04:32:43;15.20;;;13.60;;
2966;SDS011;1493;51.496;7.210;2023-06-22T04:35:11;14.07;;;12.57;;
2966;SDS011;1493;51.496;7.210;2023-06-22T04:37:42;14.13;;;11.73;;
2966;SDS011;1493;51.496;7.210;2023-06-22T04:40:11;14.80;;;13.20;;
2966;SDS011;1493;51.496;7.210;2023-06-22T04:42:39;13.37;;;12.07;;
2966;SDS011;1493;51.496;7.210;2023-06-22T04:45:18;12.93;;;11.63;;
2966;SDS011;1493;51.496;7.210;2023-06-22T04:47:45;13.27;;;11.77;;
2966;SDS011;1493;51.496;7.210;2023-06-22T04:50:12;13.50;;;11.03;;
2966;SDS011;1493;51.496;7.210;2023-06-22T04:52:38;12.90;;;11.63;;
2966;SDS011;1493;51.496;7.210;2023-06-22T04:55:07;13.83;;;11.93;;
2966;SDS011;1493;51.496;7.210;2023-06-22T04:57:34;12.83;;;11.53;;
2966;SDS011;1493;51.496;7.210;2023-06-22T05:00:04;12.73;;;11.40;;
2966;SDS011;1493;51.496;7.210;2023-06-22T05:02:37;11.80;;;10.60;;
2966;SDS011;1493;51.496;7.210;2023-06-22T05:05:04;11.73;;;10.63;;
2966;SDS011;1493;51.496;7.210;2023-06-22T05:07:32;12.50;;;11.30;;
2966;SDS011;1493;51.496;7.210;2023-06-22T05:09:59;12.93;;;10.83;;
2966;SDS011;1493;51.496;7.210;2023-06-22T05:12:29;12.73;;;11.43;;
2966;SDS011;1493;51.496;7.210;2023-06-22T05:14:56;12.47;;;11.20;;
2966;SDS011;1493;51.496;7.210;2023-06-22T05:17:23;12.23;;;11.03;;
2966;SDS011;1493;51.496;7.210;2023-06-22T05:19:50;14.90;;;11.60;;
2966;SDS011;1493;51.496;7.210;2023-06-22T05:22:17;14.23;;;12.40;;
2966;SDS011;1493;51.496;7.210;2023-06-22T05:24:44;12.57;;;11.27;;
2966;SDS011;1493;51.496;7.210;2023-06-22T05:27:11;12.43;;;11.20;;
2966;SDS011;1493;51.496;7.210;2023-06-22T05:29:39;12.77;;;11.47;;
2966;SDS011;1493;51.496;7.210;2023-06-22T05:32:07;18.30;;;13.40;;
2966;SDS011;1493;51.496;7.210;2023-06-22T05:34:34;12.87;;;10.97;;
2966;SDS011;1493;51.496;7.210;2023-06-22T05:37:01;12.83;;;11.60;;
2966;SDS011;1493;51.496;7.210;2023-06-22T05:39:28;17.87;;;11.73;;
2966;SDS011;1493;51.496;7.210;2023-06-22T05:41:55;11.87;;;10.67;;
2966;SDS011;1493;51.496;7.210;2023-06-22T05:44:22;16.13;;;12.37;;
2966;SDS011;1493;51.496;7.210;2023-06-22T05:46:50;13.87;;;12.10;;
2966;SDS011;1493;51.496;7.210;2023-06-22T05:49:17;13.67;;;11.43;;
2966;SDS011;1493;51.496;7.210;2023-06-22T05:51:44;11.40;;;10.23;;
2966;SDS011;1493;51.496;7.210;2023-06-22T05:54:10;15.20;;;10.50;;
2966;SDS011;1493;51.496;7.210;2023-06-22T05:56:38;13.17;;;11.77;;
2966;SDS011;1493;51.496;7.210;2023-06-22T05:59:05;13.80;;;11.90;;
2966;SDS011;1493;51.496;7.210;2023-06-22T06:01:32;11.87;;;10.63;;
2966;SDS011;1493;51.496;7.210;2023-06-22T06:04:02;14.23;;;11.87;;
2966;SDS011;1493;51.496;7.210;2023-06-22T06:06:29;11.03;;;9.93;;
2966;SDS011;1493;51.496;7.210;2023-06-22T06:08:56;13.20;;;10.67;;
2966;SDS011;1493;51.496;7.210;2023-06-22T06:11:23;11.87;;;10.67;;
2966;SDS011;1493;51.496;7.210;2023-06-22T06:13:51;16.20;;;11.10;;
2966;SDS011;1493;51.496;7.210;2023-06-22T06:16:17;12.90;;;10.77;;
2966;SDS011;1493;51.496;7.210;2023-06-22T06:18:44;11.77;;;10.20;;
2966;SDS011;1493;51.496;7.210;2023-06-22T06:21:12;13.47;;;11.87;;
2966;SDS011;1493;51.496;7.210;2023-06-22T06:23:39;13.27;;;11.30;;
2966;SDS011;1493;51.496;7.210;2023-06-22T06:26:07;11.70;;;10.53;;
2966;SDS011;1493;51.496;7.210;2023-06-22T06:28:34;10.87;;;9.80;;
2966;SDS011;1493;51.496;7.210;2023-06-22T06:31:01;9.87;;;8.87;;
2966;SDS011;1493;51.496;7.210;2023-06-22T06:33:32;10.20;;;9.20;;
2966;SDS011;1493;51.496;7.210;2023-06-22T06:35:58;12.80;;;11.37;;
2966;SDS011;1493;51.496;7.210;2023-06-22T06:38:29;13.23;;;9.27;;
2966;SDS011;1493;51.496;7.210;2023-06-22T06:40:56;15.10;;;11.20;;
2966;SDS011;1493;51.496;7.210;2023-06-22T06:43:24;13.23;;;11.07;;
2966;SDS011;1493;51.496;7.210;2023-06-22T06:45:50;12.20;;;10.33;;
2966;SDS011;1493;51.496;7.210;2023-06-22T06:48:17;13.73;;;11.30;;
2966;SDS011;1493;51.496;7.210;2023-06-22T06:50:44;11.77;;;10.40;;
2966;SDS011;1493;51.496;7.210;2023-06-22T06:53:11;11.30;;;9.87;;
2966;SDS011;1493;51.496;7.210;2023-06-22T06:55:39;12.67;;;10.53;;
2966;SDS011;1493;51.496;7.210;2023-06-22T06:58:06;12.00;;;10.80;;
2966;SDS011;1493;51.496;7.210;2023-06-22T07:00:34;12.23;;;11.03;;
2966;SDS011;1493;51.496;7.210;2023-06-22T07:03:02;12.20;;;11.00;;
2966;SDS011;1493;51.496;7.210;2023-06-22T07:05:28;11.10;;;10.00;;
2966;SDS011;1493;51.496;7.210;2023-06-22T07:07:55;10.63;;;9.53;;
2966;SDS011;1493;51.496;7.210;2023-06-22T07:10:22;11.80;;;10.60;;
2966;SDS011;1493;51.496;7.210;2023-06-22T07:12:50;13.00;;;10.33;;
2966;SDS011;1493;51.496;7.210;2023-06-22T07:15:17;13.73;;;10.30;;
2966;SDS011;1493;51.496;7.210;2023-06-22T07:17:44;12.80;;;9.93;;
2966;SDS011;1493;51.496;7.210;2023-06-22T07:20:11;11.80;;;10.30;;
2966;SDS011;1493;51.496;7.210;2023-06-22T07:22:39;11.47;;;10.27;;
2966;SDS011;1493;51.496;7.210;2023-06-22T07:25:07;16.03;;;9.73;;
2966;SDS011;1493;51.496;7.210;2023-06-22T07:27:36;13.93;;;10.70;;
2966;SDS011;1493;51.496;7.210;2023-06-22T07:30:06;16.10;;;10.87;;
2966;SDS011;1493;51.496;7.210;2023-06-22T07:32:34;12.10;;;9.50;;
2966;SDS011;1493;51.496;7.210;2023-06-22T07:35:02;10.93;;;9.83;;
2966;SDS011;1493;51.496;7.210;2023-06-22T07:37:29;12.23;;;10.70;;
2966;SDS011;1493;51.496;7.210;2023-06-22T07:39:58;10.83;;;9.53;;
2966;SDS011;1493;51.496;7.210;2023-06-22T07:42:27;11.87;;;10.63;;
2966;SDS011;1493;51.496;7.210;2023-06-22T07:45:05;11.30;;;10.17;;
2966;SDS011;1493;51.496;7.210;2023-06-22T07:47:34;12.80;;;11.50;;
2966;SDS011;1493;51.496;7.210;2023-06-22T07:50:01;13.63;;;11.80;;
2966;SDS011;1493;51.496;7.210;2023-06-22T07:52:29;14.33;;;12.80;;
2966;SDS011;1493;51.496;7.210;2023-06-22T07:54:56;14.70;;;13.20;;
2966;SDS011;1493;51.496;7.210;2023-06-22T07:57:23;13.57;;;12.00;;
2966;SDS011;1493;51.496;7.210;2023-06-22T07:59:57;17.20;;;14.57;;
2966;SDS011;1493;51.496;7.210;2023-06-22T08:02:26;16.13;;;12.10;;
2966;SDS011;1493;51.496;7.210;2023-06-22T08:04:52;15.53;;;14.00;;
2966;SDS011;1493;51.496;7.210;2023-06-22T08:07:19;14.60;;;12.03;;
2966;SDS011;1493;51.496;7.210;2023-06-22T08:09:46;15.50;;;13.63;;
2966;SDS011;1493;51.496;7.210;2023-06-22T08:12:14;13.70;;;12.30;;
2966;SDS011;1493;51.496;7.210;2023-06-22T08:14:42;15.43;;;13.90;;
2966;SDS011;1493;51.496;7.210;2023-06-22T08:17:09;14.37;;;12.97;;
2966;SDS011;1493;51.496;7.210;2023-06-22T08:19:38;13.93;;;12.53;;
2966;SDS011;1493;51.496;7.210;2023-06-22T08:22:05;15.17;;;13.57;;
2966;SDS011;1493;51.496;7.210;2023-06-22T08:24:32;17.77;;;13.37;;
2966;SDS011;1493;51.496;7.210;2023-06-22T08:26:59;16.83;;;13.50;;
2966;SDS011;1493;51.496;7.210;2023-06-22T08:29:26;15.20;;;13.67;;
2966;SDS011;1493;51.496;7.210;2023-06-22T08:31:53;15.40;;;14.00;;
2966;SDS011;1493;51.496;7.210;2023-06-22T08:34:21;14.63;;;13.23;;
2966;SDS011;1493;51.496;7.210;2023-06-22T08:36:51;15.03;;;13.43;;
2966;SDS011;1493;51.496;7.210;2023-06-22T08:39:18;16.53;;;13.73;;
2966;SDS011;1493;51.496;7.210;2023-06-22T08:41:46;15.77;;;14.37;;
2966;SDS011;1493;51.496;7.210;2023-06-22T08:44:13;15.20;;;13.37;;
2966;SDS011;1493;51.496;7.210;2023-06-22T08:46:39;16.67;;;15.23;;
2966;SDS011;1493;51.496;7.210;2023-06-22T08:49:06;16.77;;;15.17;;
2966;SDS011;1493;51.496;7.210;2023-06-22T08:51:34;15.27;;;13.87;;
2966;SDS011;1493;51.496;7.210;2023-06-22T08:54:03;16.60;;;13.67;;
2966;SDS011;1493;51.496;7.210;2023-06-22T08:56:30;15.70;;;14.20;;
2966;SDS011;1493;51.496;7.210;2023-06-22T08:58:56;14.40;;;12.90;;
2966;SDS011;1493;51.496;7.210;2023-06-22T09:01:25;15.13;;;13.53;;
2966;SDS011;1493;51.496;7.210;2023-06-22T09:03:52;16.43;;;14.80;;
2966;SDS011;1493;51.496;7.210;2023-06-22T09:06:22;16.07;;;14.47;;
2966;SDS011;1493;51.496;7.210;2023-06-22T09:08:49;15.80;;;14.07;;
2966;SDS011;1493;51.496;7.210;2023-06-22T09:11:18;14.53;;;13.13;;
2966;SDS011;1493;51.496;7.210;2023-06-22T09:13:44;16.40;;;14.70;;
2966;SDS011;1493;51.496;7.210;2023-06-22T09:16:11;18.27;;;14.00;;
2966;SDS011;1493;51.496;7.210;2023-06-22T09:18:38;18.10;;;15.97;;
2966;SDS011;1493;51.496;7.210;2023-06-22T09:21:06;17.07;;;15.40;;
2966;SDS011;1493;51.496;7.210;2023-06-22T09:23:33;15.73;;;14.30;;
2966;SDS011;1493;51.496;7.210;2023-06-22T09:26:00;19.07;;;15.37;;
2966;SDS011;1493;51.496;7.210;2023-06-22T09:28:29;17.40;;;15.60;;
2966;SDS011;1493;51.496;7.210;2023-06-22T09:30:56;18.20;;;14.50;;
2966;SDS011;1493;51.496;7.210;2023-06-22T09:33:23;15.07;;;13.57;;
2966;SDS011;1493;51.496;7.210;2023-06-22T09:35:50;16.07;;;14.53;;
2966;SDS011;1493;51.496;7.210;2023-06-22T09:38:17;16.37;;;14.77;;
2966;SDS011;1493;51.496;7.210;2023-06-22T09:40:43;16.23;;;14.73;;
2966;SDS011;1493;51.496;7.210;2023-06-22T09:43:10;17.43;;;15.53;;
2966;SDS011;1493;51.496;7.210;2023-06-22T09:45:39;16.23;;;14.50;;
2966;SDS011;1493;51.496;7.210;2023-06-22T09:48:06;14.57;;;13.13;;
2966;SDS011;1493;51.496;7.210;2023-06-22T09:50:34;15.93;;;14.40;;
2966;SDS011;1493;51.496;7.210;2023-06-22T09:53:01;14.43;;;13.13;;
2966;SDS011;1493;51.496;7.210;2023-06-22T09:55:28;18.37;;;16.50;;
2966;SDS011;1493;51.496;7.210;2023-06-22T09:57:55;14.60;;;13.30;;
2966;SDS011;1493;51.496;7.210;2023-06-22T10:00:22;14.10;;;12.60;;
2966;SDS011;1493;51.496;7.210;2023-06-22T10:02:50;12.63;;;11.43;;
2966;SDS011;1493;51.496;7.210;2023-06-22T10:05:17;12.37;;;11.17;;
2966;SDS011;1493;51.496;7.210;2023-06-22T10:07:43;11.50;;;10.30;;
2966;SDS011;1493;51.496;7.210;2023-06-22T10:10:11;10.73;;;9.73;;
2966;SDS011;1493;51.496;7.210;2023-06-22T10:12:41;10.60;;;9.60;;
2966;SDS011;1493;51.496;7.210;2023-06-22T10:15:09;12.73;;;11.43;;
2966;SDS011;1493;51.496;7.210;2023-06-22T10:17:37;11.67;;;10.50;;
2966;SDS011;1493;51.496;7.210;2023-06-22T10:20:06;11.17;;;10.10;;
2966;SDS011;1493;51.496;7.210;2023-06-22T10:22:37;10.60;;;9.70;;
2966;SDS011;1493;51.496;7.210;2023-06-22T10:25:04;10.87;;;9.77;;
2966;SDS011;1493;51.496;7.210;2023-06-22T10:27:32;10.47;;;9.43;;
2966;SDS011;1493;51.496;7.210;2023-06-22T10:29:59;10.23;;;9.03;;
2966;SDS011;1493;51.496;7.210;2023-06-22T10:32:26;10.90;;;9.60;;
2966;SDS011;1493;51.496;7.210;2023-06-22T10:34:53;9.50;;;8.60;;
2966;SDS011;1493;51.496;7.210;2023-06-22T10:37:22;9.80;;;8.77;;
2966;SDS011;1493;51.496;7.210;2023-06-22T10:39:49;8.90;;;8.00;;
2966;SDS011;1493;51.496;7.210;2023-06-22T10:42:15;8.40;;;7.60;;
2966;SDS011;1493;51.496;7.210;2023-06-22T10:44:42;8.70;;;7.80;;
2966;SDS011;1493;51.496;7.210;2023-06-22T10:47:09;6.87;;;6.17;;
2966;SDS011;1493;51.496;7.210;2023-06-22T10:49:37;8.83;;;7.00;;
2966;SDS011;1493;51.496;7.210;2023-06-22T10:52:04;7.40;;;6.60;;
2966;SDS011;1493;51.496;7.210;2023-06-22T10:54:33;7.20;;;6.60;;
2966;SDS011;1493;51.496;7.210;2023-06-22T10:57:01;8.33;;;7.50;;
2966;SDS011;1493;51.496;7.210;2023-06-22T10:59:28;7.80;;;7.10;;
2966;SDS011;1493;51.496;7.210;2023-06-22T11:01:55;9.50;;;7.03;;
2966;SDS011;1493;51.496;7.210;2023-06-22T11:04:22;9.37;;;7.80;;
2966;SDS011;1493;51.496;7.210;2023-06-22T11:06:49;7.63;;;6.83;;
2966;SDS011;1493;51.496;7.210;2023-06-22T11:09:17;8.57;;;7.77;;
2966;SDS011;1493;51.496;7.210;2023-06-22T11:11:47;9.03;;;8.13;;
2966;SDS011;1493;51.496;7.210;2023-06-22T11:14:15;7.97;;;7.23;;
2966;SDS011;1493;51.496;7.210;2023-06-22T11:16:42;8.73;;;7.87;;
2966;SDS011;1493;51.496;7.210;2023-06-22T11:19:09;8.27;;;7.40;;
2966;SDS011;1493;51.496;7.210;2023-06-22T11:21:36;8.37;;;7.57;;
2966;SDS011;1493;51.496;7.210;2023-06-22T11:24:03;9.23;;;8.30;;
2966;SDS011;1493;51.496;7.210;2023-06-22T11:26:30;9.10;;;8.20;;
2966;SDS011;1493;51.496;7.210;2023-06-22T11:28:59;9.03;;;8.13;;
2966;SDS011;1493;51.496;7.210;2023-06-22T11:31:26;10.10;;;9.10;;
2966;SDS011;1493;51.496;7.210;2023-06-22T11:33:53;11.73;;;10.33;;
2966;SDS011;1493;51.496;7.210;2023-06-22T11:36:20;14.53;;;12.47;;
2966;SDS011;1493;51.496;7.210;2023-06-22T11:38:48;13.87;;;12.37;;
2966;SDS011;1493;51.496;7.210;2023-06-22T11:41:14;15.97;;;14.30;;
2966;SDS011;1493;51.496;7.210;2023-06-22T11:43:41;17.97;;;16.23;;
2966;SDS011;1493;51.496;7.210;2023-06-22T11:46:09;19.13;;;16.97;;
2966;SDS011;1493;51.496;7.210;2023-06-22T11:48:36;19.77;;;17.73;;
2966;SDS011;1493;51.496;7.210;2023-06-22T11:51:04;25.00;;;22.37;;
2966;SDS011;1493;51.496;7.210;2023-06-22T11:53:31;22.73;;;20.40;;
2966;SDS011;1493;51.496;7.210;2023-06-22T11:55:59;24.70;;;19.90;;
2966;SDS011;1493;51.496;7.210;2023-06-22T11:58:26;24.63;;;22.10;;
2966;SDS011;1493;51.496;7.210;2023-06-22T12:00:53;24.30;;;21.70;;
2966;SDS011;1493;51.496;7.210;2023-06-22T12:03:22;22.83;;;20.40;;
2966;SDS011;1493;51.496;7.210;2023-06-22T12:05:49;26.90;;;24.10;;
2966;SDS011;1493;51.496;7.210;2023-06-22T12:08:16;25.83;;;22.70;;
2966;SDS011;1493;51.496;7.210;2023-06-22T12:10:43;28.70;;;24.93;;
2966;SDS011;1493;51.496;7.210;2023-06-22T12:13:10;27.67;;;23.90;;
2966;SDS011;1493;51.496;7.210;2023-06-22T12:15:37;29.63;;;26.70;;
2966;SDS011;1493;51.496;7.210;2023-06-22T12:18:04;32.10;;;28.30;;
2966;SDS011;1493;51.496;7.210;2023-06-22T12:20:33;29.73;;;26.63;;
2966;SDS011;1493;51.496;7.210;2023-06-22T12:22:59;26.97;;;24.23;;
2966;SDS011;1493;51.496;7.210;2023-06-22T12:25:27;35.10;;;28.10;;
2966;SDS011;1493;51.496;7.210;2023-06-22T12:27:54;28.70;;;25.60;;
2966;SDS011;1493;51.496;7.210;2023-06-22T12:30:21;31.03;;;24.77;;
2966;SDS011;1493;51.496;7.210;2023-06-22T12:32:48;25.70;;;23.00;;
2966;SDS011;1493;51.496;7.210;2023-06-22T12:35:16;28.07;;;24.90;;
2966;SDS011;1493;51.496;7.210;2023-06-22T12:37:44;32.43;;;26.70;;
2966;SDS011;1493;51.496;7.210;2023-06-22T12:40:11;28.40;;;25.40;;
2966;SDS011;1493;51.496;7.210;2023-06-22T12:42:39;29.87;;;26.50;;
2966;SDS011;1493;51.496;7.210;2023-06-22T12:45:07;29.90;;;27.00;;
2966;SDS011;1493;51.496;7.210;2023-06-22T12:47:34;30.40;;;27.43;;
2966;SDS011;1493;51.496;7.210;2023-06-22T12:50:01;32.80;;;29.50;;
2966;SDS011;1493;51.496;7.210;2023-06-22T12:52:29;29.80;;;26.80;;
2966;SDS011;1493;51.496;7.210;2023-06-22T12:54:57;34.87;;;31.20;;
2966;SDS011;1493;51.496;7.210;2023-06-22T12:57:24;30.17;;;27.30;;
2966;SDS011;1493;51.496;7.210;2023-06-22T12:59:51;33.10;;;29.53;;
2966;SDS011;1493;51.496;7.210;2023-06-22T13:02:18;31.03;;;27.93;;
2966;SDS011;1493;51.496;7.210;2023-06-22T13:04:45;31.20;;;26.97;;
2966;SDS011;1493;51.496;7.210;2023-06-22T13:07:12;31.80;;;28.60;;
2966;SDS011;1493;51.496;7.210;2023-06-22T13:09:39;31.50;;;28.40;;
2966;SDS011;1493;51.496;7.210;2023-06-22T13:12:08;33.30;;;28.67;;
2966;SDS011;1493;51.496;7.210;2023-06-22T13:14:37;28.40;;;25.37;;
2966;SDS011;1493;51.496;7.210;2023-06-22T13:17:05;23.73;;;21.60;;
2966;SDS011;1493;51.496;7.210;2023-06-22T13:19:33;22.13;;;19.93;;
2966;SDS011;1493;51.496;7.210;2023-06-22T13:22:00;25.23;;;22.67;;
2966;SDS011;1493;51.496;7.210;2023-06-22T13:24:27;24.20;;;20.97;;
2966;SDS011;1493;51.496;7.210;2023-06-22T13:26:54;20.27;;;18.17;;
2966;SDS011;1493;51.496;7.210;2023-06-22T13:29:22;22.97;;;20.80;;
2966;SDS011;1493;51.496;7.210;2023-06-22T13:31:49;17.87;;;16.17;;
2966;SDS011;1493;51.496;7.210;2023-06-22T13:34:16;18.57;;;16.63;;
2966;SDS011;1493;51.496;7.210;2023-06-22T13:36:43;18.17;;;15.93;;
2966;SDS011;1493;51.496;7.210;2023-06-22T13:39:11;17.17;;;15.00;;
2966;SDS011;1493;51.496;7.210;2023-06-22T13:41:39;15.90;;;14.43;;
2966;SDS011;1493;51.496;7.210;2023-06-22T13:44:08;17.37;;;15.77;;
2966;SDS011;1493;51.496;7.210;2023-06-22T13:46:36;18.80;;;14.63;;
2966;SDS011;1493;51.496;7.210;2023-06-22T13:49:03;16.93;;;15.13;;
2966;SDS011;1493;51.496;7.210;2023-06-22T13:51:32;16.77;;;15.07;;
2966;SDS011;1493;51.496;7.210;2023-06-22T13:53:58;16.60;;;15.00;;
2966;SDS011;1493;51.496;7.210;2023-06-22T13:56:25;17.03;;;15.33;;
2966;SDS011;1493;51.496;7.210;2023-06-22T13:58:52;16.63;;;15.07;;
2966;SDS011;1493;51.496;7.210;2023-06-22T14:01:19;19.17;;;17.37;;
2966;SDS011;1493;51.496;7.210;2023-06-22T14:03:48;18.20;;;16.50;;
2966;SDS011;1493;51.496;7.210;2023-06-22T14:06:15;19.00;;;17.00;;
2966;SDS011;1493;51.496;7.210;2023-06-22T14:08:42;18.20;;;16.50;;
2966;SDS011;1493;51.496;7.210;2023-06-22T14:11:09;15.80;;;14.40;;
2966;SDS011;1493;51.496;7.210;2023-06-22T14:13:36;15.83;;;13.50;;
2966;SDS011;1493;51.496;7.210;2023-06-22T14:16:03;15.30;;;13.90;;
2966;SDS011;1493;51.496;7.210;2023-06-22T14:18:30;17.27;;;15.63;;
2966;SDS011;1493;51.496;7.210;2023-06-22T14:20:59;15.27;;;13.87;;
2966;SDS011;1493;51.496;7.210;2023-06-22T14:23:26;15.87;;;14.20;;
2966;SDS011;1493;51.496;7.210;2023-06-22T14:25:53;14.00;;;12.70;;
2966;SDS011;1493;51.496;7.210;2023-06-22T14:28:20;14.47;;;13.13;;
2966;SDS011;1493;51.496;7.210;2023-06-22T14:30:47;15.80;;;14.10;;
2966;SDS011;1493;51.496;7.210;2023-06-22T14:33:14;15.10;;;13.70;;
2966;SDS011;1493;51.496;7.210;2023-06-22T14:35:43;14.53;;;13.13;;
2966;SDS011;1493;51.496;7.210;2023-06-22T14:38:14;16.37;;;14.77;;
2966;SDS011;1493;51.496;7.210;2023-06-22T14:40:41;15.80;;;14.27;;
2966;SDS011;1493;51.496;7.210;2023-06-22T14:43:08;16.93;;;15.23;;
2966;SDS011;1493;51.496;7.210;2023-06-22T14:45:36;17.00;;;15.40;;
2966;SDS011;1493;51.496;7.210;2023-06-22T14:48:03;15.10;;;13.53;;
2966;SDS011;1493;51.496;7.210;2023-06-22T14:50:30;15.90;;;14.40;;
2966;SDS011;1493;51.496;7.210;2023-06-22T14:52:57;15.20;;;13.80;;
2966;SDS011;1493;51.496;7.210;2023-06-22T14:55:29;17.60;;;16.00;;
2966;SDS011;1493;51.496;7.210;2023-06-22T14:57:56;15.80;;;14.20;;